Schawana, Washington
Current Conditions -  °F | °C
As of 7:43 AM on Saturday 20 Dec 2014 (Local Time) from K1YT Reporting Station
Rain Showers Rain Showers  
Wind Chill: 36°   Ceiling: 600
Heat Index: 36°   Visibility: 1.5mi
Dew Point: 36°   Wind: 2mph
Humidity: 100%   Direction: 30°NNE
Pressure: 29.79"   Gusts: NA
Location:  46.8623°N, 119.858°W
Report Text: K1YT 201543Z AUTO 03002KT 1 1/2SM -SHRA BR OVC006 02/02 A2979 RMK AO2 VIS 1 1/2V2 1/2 SHRAB1457
Loading
Personal Weather Stations






























Interactive Weather Map New forecast layout! Learn more

10-Day Weather Forecast

Advertisements
Track Severe Weather on mobile